Time;durP1;ratioP1;P1;durP2;ratioP2;P2;SDS_P1;SDS_P2;PMS_P1;PMS_P2;Temp;Humidity;BMP_temperature;BMP_pressure;BME280_temperature;BME280_humidity;BME280_pressure;Samples;Min_cycle;Max_cycle;Signal;HPM_P1;HPM_P2
2021/04/29 00:02:07;;;;;;;0.70;0.50;;;13.10;75.60;;;13.35;100.00;-21044.75;5091909;28;20477;-71
2021/04/29 00:04:36;;;;;;;0.70;0.60;;;13.10;76.70;;;13.38;100.00;-21045.72;5089494;28;20454;-71
2021/04/29 00:07:04;;;;;;;0.70;0.50;;;13.10;77.60;;;13.41;100.00;-21046.53;5075610;28;20428;-71
2021/04/29 00:09:32;;;;;;;1.10;0.80;;;13.10;77.60;;;13.40;100.00;-21046.28;5075308;28;20435;-71
2021/04/29 00:11:59;;;;;;;0.70;0.60;;;13.10;77.70;;;13.27;100.00;-21042.69;5075532;28;20549;-71
2021/04/29 00:14:27;;;;;;;0.70;0.60;;;12.90;80.20;;;13.19;100.00;-21040.63;5075845;28;20434;-71
2021/04/29 00:16:54;;;;;;;0.70;0.60;;;12.90;80.40;;;13.17;100.00;-21039.94;5075714;28;20863;-71
2021/04/29 00:19:21;;;;;;;0.70;0.50;;;12.90;81.30;;;13.06;100.00;-21037.03;5079680;28;20449;-71
2021/04/29 00:21:48;;;;;;;0.70;0.60;;;12.80;82.50;;;13.07;100.00;-21037.31;5075674;28;20462;-71
2021/04/29 00:24:16;;;;;;;0.70;0.50;;;12.80;82.30;;;12.93;100.00;-21033.59;5073880;28;20451;-71
2021/04/29 00:26:43;;;;;;;0.70;0.60;;;12.70;83.30;;;13.02;100.00;-21036.06;5075112;28;20951;-71
2021/04/29 00:29:10;;;;;;;0.70;0.60;;;12.80;83.70;;;12.99;100.00;-21035.09;5075309;28;20431;-71
2021/04/29 00:31:37;;;;;;;0.70;0.57;;;12.80;84.20;;;12.93;100.00;-21033.44;5075288;28;20983;-73
2021/04/29 00:34:04;;;;;;;0.70;0.50;;;12.70;84.40;;;12.88;100.00;-21032.19;5085056;28;20799;-71
2021/04/29 00:36:32;;;;;;;0.70;0.60;;;12.70;86.10;;;12.91;100.00;-21033.03;5089005;28;20450;-71
2021/04/29 00:38:59;;;;;;;0.70;0.60;;;12.70;86.30;;;12.76;100.00;-21028.88;5092880;28;20445;-71
2021/04/29 00:41:27;;;;;;;0.70;0.60;;;12.60;88.20;;;12.71;100.00;-21027.50;5094093;28;20419;-72
2021/04/29 00:43:54;;;;;;;0.70;0.50;;;12.60;88.10;;;12.67;100.00;-21026.41;5091056;28;20526;-71
2021/04/29 00:46:21;;;;;;;0.80;0.70;;;12.50;88.30;;;12.66;100.00;-21026.13;5073070;28;20442;-71
2021/04/29 00:48:49;;;;;;;0.70;0.50;;;12.50;89.50;;;12.51;100.00;-21022.25;5082820;28;20804;-71
2021/04/29 00:51:18;;;;;;;0.70;0.60;;;12.40;90.40;;;12.49;100.00;-21021.72;5073406;28;20830;-71
2021/04/29 00:53:46;;;;;;;0.70;0.50;;;12.40;90.80;;;12.48;100.00;-21021.44;5074885;28;20436;-71
2021/04/29 00:56:14;;;;;;;0.97;0.83;;;12.40;91.10;;;12.47;100.00;-21021.16;5074795;28;20415;-71
2021/04/29 00:58:42;;;;;;;0.70;0.50;;;12.30;91.60;;;12.56;100.00;-21023.66;5074536;28;20446;-71
2021/04/29 01:01:10;;;;;;;0.70;0.50;;;12.30;91.90;;;12.42;100.00;-21019.78;5073607;28;20454;-71
2021/04/29 01:03:43;;;;;;;1.00;0.80;;;12.20;92.50;;;12.46;100.00;-21020.88;5081364;28;20542;-71
2021/04/29 01:06:16;;;;;;;0.70;0.50;;;12.30;92.80;;;12.45;100.00;-21020.63;5076861;28;20429;-73
2021/04/29 01:08:54;;;;;;;0.70;0.60;;;12.30;92.90;;;12.43;100.00;-21020.06;5093539;28;20770;-73
2021/04/29 01:11:24;;;;;;;0.70;0.60;;;12.20;93.10;;;12.33;100.00;-21017.28;5094041;28;20440;-73
2021/04/29 01:13:56;;;;;;;0.70;0.50;;;12.20;93.70;;;12.23;100.00;-21014.53;5094665;28;20406;-71
2021/04/29 01:16:25;;;;;;;0.70;0.60;;;12.10;94.40;;;12.18;100.00;-21013.16;5086711;28;20936;-71
2021/04/29 01:18:55;;;;;;;0.70;0.60;;;12.00;95.50;;;12.12;100.00;-21011.63;5088572;28;20501;-71
2021/04/29 01:21:24;;;;;;;0.70;0.60;;;11.90;95.80;;;12.09;100.00;-21010.94;5085496;28;20480;-70
2021/04/29 01:24:01;;;;;;;0.70;0.60;;;11.90;96.20;;;12.24;100.00;-21014.81;5093134;28;20458;-71
2021/04/29 01:26:52;;;;;;;0.70;0.50;;;11.90;96.30;;;12.09;100.00;-21010.94;5092971;28;20939;-72
2021/04/29 01:29:23;;;;;;;0.70;0.60;;;11.80;96.70;;;12.10;100.00;-21011.09;5090012;28;20454;-71
2021/04/29 01:31:53;;;;;;;0.70;0.60;;;11.90;96.50;;;12.07;100.00;-21010.41;5086947;28;20430;-71
2021/04/29 01:34:26;;;;;;;1.13;0.80;;;11.90;96.60;;;12.01;100.00;-21008.75;5076755;28;20455;-73
2021/04/29 01:36:55;;;;;;;0.70;0.50;;;11.80;96.90;;;11.99;100.00;-21008.19;5079360;28;20922;-71
2021/04/29 01:39:22;;;;;;;0.80;0.60;;;11.70;97.50;;;11.97;100.00;-21007.63;5092297;28;20438;-71
2021/04/29 01:41:53;;;;;;;0.70;0.50;;;11.70;97.80;;;11.91;100.00;-21005.97;5092992;28;20444;-71
2021/04/29 01:44:24;;;;;;;0.70;0.57;;;11.70;99.10;;;11.88;100.00;-21005.16;5085893;28;20461;-71
2021/04/29 01:46:53;;;;;;;0.70;0.60;;;11.60;99.90;;;11.87;100.00;-21004.88;5076989;28;20518;-71
2021/04/29 01:49:20;;;;;;;0.70;0.60;;;11.60;99.90;;;12.23;100.00;-21014.53;5084756;28;20455;-71
2021/04/29 01:51:48;;;;;;;0.70;0.60;;;11.80;95.80;;;12.69;100.00;-21026.97;5093821;28;20785;-71
2021/04/29 01:54:16;;;;;;;0.70;0.50;;;12.30;91.80;;;12.92;100.00;-21033.31;5093102;28;20449;-73
2021/04/29 01:56:45;;;;;;;0.70;0.60;;;12.60;88.50;;;12.89;100.00;-21032.47;5086990;28;20464;-73
2021/04/29 01:59:14;;;;;;;0.70;0.50;;;12.70;86.70;;;12.98;100.00;-21034.81;5090175;28;20491;-73
2021/04/29 02:01:43;;;;;;;0.70;0.50;;;12.70;84.90;;;13.06;100.00;-21037.03;5076120;28;20431;-71
2021/04/29 02:04:11;;;;;;;0.70;0.60;;;12.80;82.90;;;13.13;100.00;-21038.81;5082044;28;20445;-71
2021/04/29 02:06:41;;;;;;;0.70;0.60;;;12.90;82.30;;;13.14;100.00;-21039.09;5093191;28;20420;-71
2021/04/29 02:09:10;;;;;;;0.80;0.77;;;12.80;81.70;;;13.20;100.00;-21040.75;5091898;28;20454;-71
2021/04/29 02:11:42;;;;;;;0.70;0.50;;;12.90;80.90;;;13.25;100.00;-21042.13;5091938;28;20533;-71
2021/04/29 02:14:12;;;;;;;0.70;0.50;;;12.90;81.20;;;13.26;100.00;-21042.41;5080435;28;20443;-71
2021/04/29 02:16:43;;;;;;;0.70;0.50;;;12.90;81.30;;;13.27;100.00;-21042.69;5073602;28;20404;-73
2021/04/29 02:19:12;;;;;;;0.70;0.60;;;13.00;81.80;;;13.20;100.00;-21040.75;5082983;28;20444;-72
2021/04/29 02:21:44;;;;;;;0.70;0.50;;;13.00;82.00;;;13.22;100.00;-21041.31;5093771;28;20426;-73
2021/04/29 02:24:13;;;;;;;0.70;0.57;;;12.90;81.20;;;13.22;100.00;-21041.31;5109178;28;20434;-72
2021/04/29 02:26:41;;;;;;;0.70;0.60;;;12.90;81.40;;;13.31;100.00;-21043.78;5091488;28;20530;-72
2021/04/29 02:29:09;;;;;;;0.70;0.60;;;13.00;81.70;;;13.27;100.00;-21042.69;5075663;28;20547;-72
2021/04/29 02:31:38;;;;;;;0.70;0.50;;;13.00;81.60;;;13.30;100.00;-21043.50;5073469;28;20403;-71
2021/04/29 02:34:06;;;;;;;0.70;0.60;;;12.90;82.70;;;13.34;100.00;-21044.63;5080851;28;20796;-71
2021/04/29 02:36:35;;;;;;;0.70;0.60;;;12.90;82.90;;;13.32;100.00;-21044.06;5091708;28;20491;-71
2021/04/29 02:39:05;;;;;;;0.80;0.70;;;13.00;83.00;;;13.25;100.00;-21042.13;5082904;28;20494;-71
2021/04/29 02:41:33;;;;;;;0.70;0.50;;;13.00;83.10;;;13.22;100.00;-21041.31;5076299;28;20416;-71
2021/04/29 02:44:01;;;;;;;0.70;0.60;;;12.90;83.30;;;13.28;100.00;-21042.97;5076786;28;20459;-71
2021/04/29 02:46:29;;;;;;;0.70;0.60;;;12.90;83.80;;;13.15;100.00;-21039.38;5077472;28;20527;-71
2021/04/29 02:48:58;;;;;;;0.70;0.60;;;12.80;84.10;;;13.19;100.00;-21040.47;5077163;28;20485;-71
2021/04/29 02:51:25;;;;;;;0.80;0.77;;;12.80;84.80;;;13.24;100.00;-21041.84;5076084;28;20783;-71
2021/04/29 02:53:52;;;;;;;0.70;0.50;;;12.90;85.10;;;13.28;100.00;-21043.09;5075663;28;20534;-71
2021/04/29 02:56:20;;;;;;;0.70;0.50;;;12.90;84.50;;;13.16;100.00;-21039.78;5077127;28;20942;-71
2021/04/29 02:58:48;;;;;;;0.70;0.50;;;12.90;85.20;;;13.13;100.00;-21038.81;5080129;28;20846;-71
2021/04/29 03:01:16;;;;;;;0.70;0.50;;;12.80;85.30;;;13.17;100.00;-21039.94;5078311;28;20442;-71
2021/04/29 03:03:44;;;;;;;0.70;0.60;;;12.80;85.90;;;13.18;100.00;-21040.19;5085781;28;20499;-71
2021/04/29 03:06:13;;;;;;;0.70;0.50;;;12.80;86.60;;;13.11;100.00;-21038.28;5076440;28;20465;-71
2021/04/29 03:08:39;;;;;;;0.70;0.60;;;12.80;87.20;;;13.08;100.00;-21037.59;5076672;28;20764;-72
2021/04/29 03:11:07;;;;;;;0.70;0.60;;;12.70;87.40;;;13.17;100.00;-21039.94;5076757;28;20419;-70
2021/04/29 03:13:34;;;;;;;0.70;0.50;;;12.70;88.20;;;13.10;100.00;-21038.00;5076527;28;20496;-71
2021/04/29 03:16:01;;;;;;;0.70;0.50;;;12.70;87.70;;;13.03;100.00;-21036.34;5080881;28;20446;-71
2021/04/29 03:18:29;;;;;;;0.80;0.60;;;12.70;87.90;;;12.98;100.00;-21034.81;5092255;28;20447;-71
2021/04/29 03:20:56;;;;;;;0.70;0.50;;;12.70;88.00;;;13.03;100.00;-21036.34;5080558;28;20482;-73
2021/04/29 03:23:25;;;;;;;0.70;0.57;;;12.70;88.80;;;12.90;100.00;-21032.75;5080029;28;20456;-71
2021/04/29 03:25:52;;;;;;;0.70;0.60;;;12.70;89.30;;;12.92;100.00;-21033.16;5093344;28;20449;-71
2021/04/29 03:28:19;;;;;;;0.70;0.50;;;12.60;89.20;;;12.86;100.00;-21031.50;5082382;28;20468;-72
2021/04/29 03:30:46;;;;;;;0.70;0.50;;;12.60;89.40;;;12.88;100.00;-21032.06;5087800;28;20446;-72
2021/04/29 03:33:13;;;;;;;0.70;0.60;;;12.60;90.10;;;12.84;100.00;-21031.09;5094174;28;20438;-72
2021/04/29 03:35:40;;;;;;;0.80;0.60;;;12.50;90.50;;;12.88;100.00;-21032.06;5081510;28;20538;-73
2021/04/29 03:38:08;;;;;;;0.70;0.60;;;12.60;90.50;;;12.92;100.00;-21033.16;5094312;28;20483;-72
2021/04/29 03:40:37;;;;;;;0.70;0.60;;;12.50;90.50;;;12.88;100.00;-21032.06;5080840;28;20438;-72
2021/04/29 03:43:05;;;;;;;1.13;1.07;;;12.50;90.90;;;12.97;100.00;-21034.69;5083472;28;20505;-72
2021/04/29 03:45:33;;;;;;;0.70;0.60;;;12.60;90.50;;;12.90;100.00;-21032.75;5087599;28;20922;-73
2021/04/29 03:48:01;;;;;;;0.70;0.60;;;12.50;91.00;;;12.70;100.00;-21027.38;5096004;28;20867;-72
2021/04/29 03:50:29;;;;;;;1.00;0.70;;;12.40;91.10;;;12.74;100.00;-21028.34;5075500;28;20497;-73
2021/04/29 03:52:57;;;;;;;0.70;0.50;;;12.40;91.40;;;12.78;100.00;-21029.44;5075017;28;20435;-73
2021/04/29 03:55:24;;;;;;;0.70;0.50;;;12.40;91.30;;;12.85;100.00;-21031.38;5078619;28;20452;-73
2021/04/29 03:57:52;;;;;;;0.73;0.67;;;12.50;91.40;;;12.65;100.00;-21026.00;5058425;28;20471;-73
2021/04/29 04:00:20;;;;;;;0.70;0.60;;;12.40;91.60;;;12.70;100.00;-21027.22;5073458;28;20442;-73
2021/04/29 04:02:47;;;;;;;0.70;0.60;;;12.30;92.10;;;12.62;100.00;-21025.03;5095880;28;20462;-72
2021/04/29 04:05:14;;;;;;;0.70;0.60;;;12.30;91.90;;;12.62;100.00;-21025.03;5093912;28;20492;-73
2021/04/29 04:07:43;;;;;;;0.70;0.60;;;12.30;92.30;;;12.74;100.00;-21028.47;5092522;28;20438;-73
2021/04/29 04:10:11;;;;;;;0.70;0.50;;;12.40;92.40;;;12.72;100.00;-21027.78;5092966;28;20422;-73
2021/04/29 04:12:39;;;;;;;0.87;0.63;;;12.40;92.50;;;12.71;100.00;-21027.50;5089831;28;20461;-73
2021/04/29 04:15:09;;;;;;;0.70;0.60;;;12.30;92.80;;;12.74;100.00;-21028.34;5083950;28;20431;-72
2021/04/29 04:17:36;;;;;;;0.70;0.60;;;12.40;92.60;;;12.78;100.00;-21029.59;5074145;28;20939;-74
2021/04/29 04:20:21;;;;;;;0.70;0.50;;;12.40;92.80;;;12.75;100.00;-21028.75;5075329;28;20435;-72
2021/04/29 04:22:49;;;;;;;0.70;0.60;;;12.30;93.10;;;12.73;100.00;-21028.06;5075429;28;20532;-72
2021/04/29 04:25:17;;;;;;;1.43;1.33;;;12.30;93.20;;;12.71;100.00;-21027.66;5075594;28;20442;-72
2021/04/29 04:27:44;;;;;;;0.70;0.60;;;12.30;93.30;;;12.61;100.00;-21024.75;5087458;28;20537;-73
2021/04/29 04:30:13;;;;;;;0.70;0.60;;;12.30;93.80;;;12.71;100.00;-21027.50;5088784;28;20435;-72
2021/04/29 04:32:40;;;;;;;0.80;0.80;;;12.20;94.30;;;12.52;100.00;-21022.53;5075216;28;20420;-73
2021/04/29 04:35:09;;;;;;;0.70;0.50;;;12.20;94.80;;;12.43;100.00;-21020.06;5074954;28;20477;-72
2021/04/29 04:37:37;;;;;;;0.70;0.60;;;12.10;95.40;;;12.58;100.00;-21024.19;5075538;28;20445;-72
2021/04/29 04:40:07;;;;;;;0.70;0.60;;;12.10;95.80;;;12.69;100.00;-21026.97;5074869;28;20430;-72
2021/04/29 04:42:35;;;;;;;0.70;0.60;;;12.10;96.00;;;12.39;100.00;-21018.97;5074946;28;20466;-72
2021/04/29 04:45:02;;;;;;;0.70;0.50;;;12.00;96.40;;;12.40;100.00;-21019.22;5073362;28;20478;-72
2021/04/29 04:47:30;;;;;;;0.70;0.50;;;12.00;96.80;;;12.34;100.00;-21017.56;5075033;28;20411;-72
2021/04/29 04:49:57;;;;;;;0.70;0.60;;;12.00;97.10;;;12.32;100.00;-21017.03;5074564;28;20930;-73
2021/04/29 04:52:25;;;;;;;0.70;0.57;;;12.00;97.50;;;12.39;100.00;-21018.97;5074860;28;20963;-72
2021/04/29 04:54:53;;;;;;;0.70;0.60;;;11.90;98.40;;;12.33;100.00;-21017.28;5074671;28;20416;-73
2021/04/29 04:57:20;;;;;;;0.70;0.60;;;11.80;98.70;;;12.47;100.00;-21021.03;5074416;28;20498;-72
2021/04/29 04:59:47;;;;;;;1.33;1.23;;;11.80;99.90;;;12.11;100.00;-21011.22;5072828;28;20435;-73
2021/04/29 05:02:14;;;;;;;0.80;0.70;;;11.80;99.30;;;12.31;100.00;-21016.75;5075483;28;20927;-72
2021/04/29 05:04:43;;;;;;;1.23;0.80;;;11.80;99.90;;;12.11;100.00;-21011.22;5074651;28;20438;-72
2021/04/29 05:07:11;;;;;;;0.80;0.70;;;11.70;99.90;;;12.12;100.00;-21011.63;5074410;28;20504;-73
2021/04/29 05:09:39;;;;;;;0.70;0.50;;;11.70;99.90;;;11.92;100.00;-21006.13;5075169;28;20441;-73
2021/04/29 05:12:08;;;;;;;0.70;0.60;;;11.60;99.90;;;11.92;100.00;-21006.25;5074319;28;20455;-73
2021/04/29 05:14:35;;;;;;;1.30;0.70;;;11.60;99.90;;;11.88;100.00;-21005.16;5074025;28;20480;-72
2021/04/29 05:17:03;;;;;;;0.70;0.60;;;11.50;99.90;;;11.92;100.00;-21006.25;5074116;28;20431;-72
2021/04/29 05:19:31;;;;;;;0.70;0.67;;;11.50;99.90;;;11.72;100.00;-21000.88;5074328;28;20408;-72
2021/04/29 05:21:59;;;;;;;0.70;0.50;;;11.50;99.90;;;11.62;100.00;-20998.09;5072843;28;20472;-72
2021/04/29 05:24:26;;;;;;;0.70;0.50;;;11.40;99.90;;;11.59;100.00;-20997.41;5074201;28;20463;-72
2021/04/29 05:26:53;;;;;;;0.70;0.50;;;11.30;99.90;;;11.51;100.00;-20995.06;5090357;28;20465;-72
2021/04/29 05:29:20;;;;;;;0.70;0.50;;;11.20;99.90;;;11.56;100.00;-20996.59;5087508;28;20419;-72
2021/04/29 05:31:47;;;;;;;0.70;0.50;;;11.30;99.90;;;11.61;100.00;-20997.97;5072629;28;20466;-73
2021/04/29 05:34:15;;;;;;;0.70;0.60;;;11.30;99.90;;;11.83;100.00;-21003.75;5075676;28;21069;-72
2021/04/29 05:36:42;;;;;;;0.70;0.50;;;11.40;99.90;;;11.73;100.00;-21001.00;5076998;28;20445;-73
2021/04/29 05:39:10;;;;;;;0.70;0.53;;;11.40;99.90;;;11.78;100.00;-21002.38;5072664;28;20473;-73
2021/04/29 05:41:37;;;;;;;0.70;0.53;;;11.50;99.90;;;11.80;100.00;-21002.94;5072332;28;20435;-74
2021/04/29 05:44:05;;;;;;;0.70;0.63;;;11.50;99.90;;;11.82;100.00;-21003.63;5073451;28;20450;-72
2021/04/29 05:46:33;;;;;;;0.70;0.60;;;11.50;99.90;;;11.86;100.00;-21004.59;5080614;28;20433;-73
2021/04/29 05:49:00;;;;;;;0.70;0.50;;;11.40;99.90;;;11.83;100.00;-21003.75;5092825;28;20426;-72
2021/04/29 05:51:28;;;;;;;0.70;0.60;;;11.50;99.90;;;11.84;100.00;-21004.03;5083178;28;20871;-73
2021/04/29 05:53:55;;;;;;;6.33;0.90;;;11.50;99.90;;;11.92;100.00;-21006.25;5073780;28;20796;-73
2021/04/29 05:56:23;;;;;;;0.70;0.50;;;11.50;99.90;;;11.85;100.00;-21004.31;5073470;28;20434;-73
2021/04/29 05:58:50;;;;;;;0.70;0.50;;;11.50;99.90;;;11.71;100.00;-21000.59;5073262;28;20484;-73
2021/04/29 06:01:17;;;;;;;0.87;0.80;;;11.40;99.90;;;11.97;100.00;-21007.63;5093218;28;20439;-72
2021/04/29 06:03:45;;;;;;;0.70;0.63;;;11.50;99.90;;;11.87;100.00;-21004.75;5093766;28;20462;-72
2021/04/29 06:06:12;;;;;;;0.70;0.53;;;11.50;99.90;;;11.90;100.00;-21005.69;5093667;28;20453;-73
2021/04/29 06:08:39;;;;;;;0.70;0.50;;;11.50;99.90;;;11.85;100.00;-21004.31;5091682;28;20430;-73
2021/04/29 06:11:07;;;;;;;0.90;0.90;;;11.50;99.90;;;11.84;100.00;-21004.03;5092705;28;20443;-73
2021/04/29 06:13:35;;;;;;;0.70;0.70;;;11.50;99.90;;;11.95;100.00;-21007.09;5091424;28;20503;-72
2021/04/29 06:16:02;;;;;;;0.70;0.60;;;11.50;99.90;;;11.92;100.00;-21006.13;5073391;28;20939;-73
2021/04/29 06:18:30;;;;;;;0.70;0.60;;;11.60;99.90;;;12.11;100.00;-21011.22;5080301;28;20799;-73
2021/04/29 06:20:57;;;;;;;0.70;0.60;;;11.50;99.90;;;11.92;100.00;-21006.13;5077112;28;20881;-73
2021/04/29 06:23:24;;;;;;;0.70;0.50;;;11.50;99.90;;;11.96;100.00;-21007.22;5083665;28;20497;-73
2021/04/29 06:25:51;;;;;;;0.70;0.50;;;11.50;99.90;;;12.09;100.00;-21010.94;5092301;28;20442;-73
2021/04/29 06:28:18;;;;;;;0.70;0.60;;;11.60;99.90;;;12.15;100.00;-21012.47;5093480;28;20442;-73
2021/04/29 06:30:46;;;;;;;0.70;0.60;;;11.70;99.90;;;12.32;100.00;-21017.16;5086572;28;20443;-73
2021/04/29 06:33:13;;;;;;;0.70;0.57;;;11.80;99.90;;;12.53;100.00;-21022.69;5072349;28;20442;-73
2021/04/29 06:35:40;;;;;;;0.70;0.50;;;12.10;99.90;;;12.94;100.00;-21033.84;5085322;28;20808;-72
2021/04/29 06:38:08;;;;;;;0.70;0.60;;;12.50;99.90;;;13.30;100.00;-21043.50;5093505;28;20407;-73
2021/04/29 06:40:35;;;;;;;0.70;0.67;;;12.70;99.90;;;13.14;100.00;-21039.09;5093531;28;20439;-72
2021/04/29 06:43:02;;;;;;;1.73;1.63;;;12.70;99.90;;;12.94;100.00;-21033.84;5093051;28;20487;-73
2021/04/29 06:45:29;;;;;;;0.70;0.60;;;12.70;99.90;;;13.35;100.00;-21044.75;5055137;28;20445;-72
2021/04/29 06:47:57;;;;;;;1.00;0.90;;;12.90;99.90;;;14.14;100.00;-21066.09;5073094;28;20411;-73
2021/04/29 06:50:24;;;;;;;0.70;0.60;;;13.10;99.90;;;13.90;100.00;-21059.63;5072113;28;20554;-73
2021/04/29 06:52:51;;;;;;;0.97;0.70;;;13.00;99.90;;;13.60;100.00;-21051.50;5073405;28;20743;-73
2021/04/29 06:55:23;;;;;;;0.90;0.80;;;12.70;99.90;;;13.25;100.00;-21042.28;5072895;28;20415;-73
2021/04/29 06:57:50;;;;;;;0.70;0.70;;;12.60;99.90;;;12.86;100.00;-21031.66;5072943;28;20445;-74
2021/04/29 07:00:19;;;;;;;1.33;1.27;;;12.50;99.90;;;12.97;100.00;-21034.53;5072529;28;20435;-73
2021/04/29 07:02:51;;;;;;;1.10;1.00;;;12.50;99.90;;;13.10;100.00;-21038.13;5072827;28;20491;-74
2021/04/29 07:05:20;;;;;;;1.43;1.13;;;12.60;99.50;;;13.31;100.00;-21043.78;5076571;28;20942;-74
2021/04/29 07:07:50;;;;;;;0.73;0.70;;;12.80;99.20;;;13.43;100.00;-21047.09;5087862;28;20470;-72
2021/04/29 07:10:18;;;;;;;0.90;0.70;;;13.00;97.70;;;13.58;100.00;-21050.97;5092237;28;20497;-76
2021/04/29 07:13:05;;;;;;;0.77;0.67;;;13.10;97.20;;;14.67;100.00;-21080.56;5086972;28;20490;-73
2021/04/29 07:15:32;;;;;;;3.13;1.13;;;13.60;96.20;;;14.77;100.00;-21083.19;5072618;28;20404;-72
2021/04/29 07:17:59;;;;;;;4.30;1.73;;;13.80;94.10;;;14.53;100.00;-21076.56;5072767;28;20428;-74
2021/04/29 07:20:29;;;;;;;1.73;1.57;;;13.60;94.20;;;14.79;100.00;-21083.72;5072690;28;20441;-73
2021/04/29 07:22:57;;;;;;;0.80;0.70;;;14.10;91.60;;;15.07;100.00;-21091.31;5082541;28;20591;-73
2021/04/29 07:25:24;;;;;;;1.30;1.20;;;14.20;88.10;;;15.35;100.00;-21098.88;5071066;28;20462;-73
2021/04/29 07:27:52;;;;;;;1.27;1.17;;;14.30;90.10;;;16.27;100.00;-21123.47;5075891;28;20442;-74
2021/04/29 07:30:20;;;;;;;0.80;0.67;;;14.50;88.30;;;16.61;100.00;-21132.81;5075872;28;20921;-72
2021/04/29 07:32:47;;;;;;;1.00;0.90;;;15.10;85.00;;;16.06;100.00;-21117.84;5095629;28;20426;-74
2021/04/29 07:35:15;;;;;;;1.83;1.67;;;15.10;84.00;;;16.43;100.00;-21127.88;5081963;28;20470;-73
2021/04/29 07:37:43;;;;;;;1.10;1.00;;;15.10;76.60;;;17.73;100.00;-21162.84;5074998;28;20447;-73
2021/04/29 07:40:11;;;;;;;1.13;1.00;;;14.80;77.70;;;16.78;100.00;-21137.19;5091701;28;20447;-72
2021/04/29 07:42:38;;;;;;;2.80;1.20;;;14.40;75.00;;;15.92;100.00;-21114.25;5074303;28;20881;-73
2021/04/29 07:45:07;;;;;;;0.80;0.67;;;14.10;77.60;;;16.49;100.00;-21129.50;5075836;28;20779;-72
2021/04/29 07:47:34;;;;;;;0.80;0.80;;;14.50;75.50;;;15.80;100.00;-21110.97;5076270;28;20914;-73
2021/04/29 07:50:02;;;;;;;1.83;1.73;;;14.70;73.60;;;16.13;100.00;-21119.75;5090930;28;20433;-74
2021/04/29 07:52:31;;;;;;;2.80;2.07;;;15.20;73.80;;;17.54;100.00;-21157.78;5093297;28;20431;-72
2021/04/29 07:54:58;;;;;;;0.80;0.60;;;15.50;71.10;;;17.19;100.00;-21148.16;5096045;28;20470;-73
2021/04/29 07:57:26;;;;;;;1.63;1.13;;;15.30;66.50;;;17.68;100.00;-21161.47;5094646;28;20464;-71
2021/04/29 07:59:53;;;;;;;0.80;0.60;;;15.60;63.50;;;17.32;100.00;-21151.88;5088921;28;20965;-73
2021/04/29 08:02:20;;;;;;;0.80;0.70;;;15.60;61.60;;;16.87;100.00;-21139.81;5075530;28;20518;-71
2021/04/29 08:04:48;;;;;;;1.40;1.10;;;15.60;61.60;;;17.18;100.00;-21148.03;5076447;28;20458;-72
2021/04/29 08:07:14;;;;;;;1.97;1.87;;;15.20;65.40;;;17.77;100.00;-21163.94;5074201;28;20907;-70
2021/04/29 08:09:41;;;;;;;1.07;1.00;;;14.70;65.90;;;16.93;100.00;-21141.19;5085771;28;20427;-73
2021/04/29 08:12:10;;;;;;;2.20;1.50;;;14.20;67.20;;;16.79;100.00;-21137.63;5095898;28;20891;-72
2021/04/29 08:14:37;;;;;;;1.53;1.40;;;14.60;64.80;;;16.63;100.00;-21133.22;5077030;28;20788;-73
2021/04/29 08:17:04;;;;;;;0.80;0.70;;;14.80;62.10;;;17.48;100.00;-21156.00;5075113;28;20772;-72
2021/04/29 08:19:32;;;;;;;1.57;1.47;;;14.70;59.60;;;17.23;100.00;-21149.28;5075225;28;20936;-71
2021/04/29 08:22:00;;;;;;;0.90;0.80;;;14.60;61.60;;;18.23;100.00;-21176.13;5075327;28;20955;-72
2021/04/29 08:24:27;;;;;;;0.80;0.70;;;15.20;59.00;;;17.51;100.00;-21156.81;5075134;28;20458;-72
2021/04/29 08:26:54;;;;;;;0.80;0.80;;;15.70;55.80;;;19.04;100.00;-21197.91;5075241;28;20541;-73
2021/04/29 08:29:23;;;;;;;0.80;0.60;;;15.50;55.40;;;19.69;100.00;-21215.41;5092337;28;20512;-72
2021/04/29 08:31:50;;;;;;;0.90;0.80;;;15.90;54.10;;;19.15;100.00;-21200.91;5075395;28;20435;-73
2021/04/29 08:34:17;;;;;;;1.37;1.27;;;16.10;50.90;;;18.25;100.00;-21176.81;5073996;28;20433;-73
2021/04/29 08:36:45;;;;;;;0.90;0.83;;;16.30;51.20;;;18.88;100.00;-21193.53;5074942;28;20440;-72
2021/04/29 08:39:12;;;;;;;2.30;0.80;;;16.40;46.60;;;18.61;100.00;-21186.41;5074852;28;20427;-73
2021/04/29 08:41:39;;;;;;;1.43;1.23;;;16.20;43.50;;;18.38;100.00;-21180.25;5073759;28;20462;-73
2021/04/29 08:44:06;;;;;;;1.57;1.17;;;16.00;43.60;;;19.05;100.00;-21198.31;5074630;28;20447;-72
2021/04/29 08:46:34;;;;;;;1.23;0.97;;;16.00;47.90;;;18.43;100.00;-21181.47;5065255;28;20795;-73
2021/04/29 08:49:02;;;;;;;0.70;0.60;;;16.00;42.00;;;19.03;100.00;-21197.78;5094889;28;20461;-72
2021/04/29 08:51:29;;;;;;;3.33;1.57;;;16.30;42.00;;;18.45;100.00;-21182.03;5094342;28;20418;-73
2021/04/29 08:53:57;;;;;;;0.80;0.80;;;15.60;43.30;;;17.72;100.00;-21162.56;5095152;28;20401;-71
2021/04/29 08:56:26;;;;;;;2.83;2.60;;;15.30;43.00;;;17.47;100.00;-21155.72;5095247;28;20441;-73
2021/04/29 08:58:54;;;;;;;0.80;0.70;;;15.50;45.80;;;18.43;100.00;-21181.47;5089986;28;20476;-73
2021/04/29 09:01:23;;;;;;;1.23;1.13;;;15.70;45.00;;;18.89;100.00;-21193.81;5082486;28;20430;-71
2021/04/29 09:03:52;;;;;;;0.90;0.90;;;16.20;45.50;;;18.73;100.00;-21189.69;5095116;28;20508;-71
2021/04/29 09:06:31;;;;;;;1.83;1.73;;;15.90;43.40;;;18.56;100.00;-21185.03;5094676;28;20476;-71
2021/04/29 09:08:59;;;;;;;1.23;1.13;;;16.00;46.60;;;18.22;100.00;-21176.00;5094691;28;20757;-71
2021/04/29 09:11:26;;;;;;;1.53;1.43;;;15.80;48.90;;;17.58;100.00;-21158.72;5088218;28;20430;-72
2021/04/29 09:13:56;;;;;;;1.47;1.37;;;15.30;49.10;;;17.61;100.00;-21159.56;5077186;28;20459;-71
2021/04/29 09:16:24;;;;;;;0.80;0.70;;;15.50;49.90;;;17.07;100.00;-21145.16;5087312;28;20441;-72
2021/04/29 09:18:53;;;;;;;1.20;1.00;;;15.40;49.20;;;17.68;100.00;-21161.34;5094572;28;20407;-71
2021/04/29 09:21:20;;;;;;;2.80;1.57;;;15.30;47.90;;;17.38;100.00;-21153.53;5089351;28;20473;-73
2021/04/29 09:23:51;;;;;;;2.50;0.80;;;14.70;49.00;;;17.26;100.00;-21150.22;5073114;28;20467;-73
2021/04/29 09:26:20;;;;;;;0.80;0.60;;;15.00;51.30;;;16.43;100.00;-21128.00;5073793;28;20416;-76
2021/04/29 09:28:49;;;;;;;0.80;0.70;;;15.10;50.30;;;16.66;100.00;-21134.03;5073675;28;20402;-73
2021/04/29 09:31:20;;;;;;;1.10;0.80;;;14.50;50.00;;;16.56;100.00;-21131.28;5077032;28;20459;-73
2021/04/29 09:33:49;;;;;;;2.07;1.10;;;14.70;51.70;;;15.74;100.00;-21109.19;5093483;28;20427;-73
2021/04/29 09:36:24;;;;;;;4.67;1.00;;;14.50;51.00;;;15.66;100.00;-21107.25;5083926;28;20457;-72
2021/04/29 09:38:54;;;;;;;1.00;0.90;;;14.00;53.30;;;15.43;100.00;-21101.06;5073990;28;20499;-73
2021/04/29 09:41:24;;;;;;;0.73;0.60;;;14.20;55.10;;;15.34;100.00;-21098.59;5074150;28;20460;-73
2021/04/29 09:43:55;;;;;;;0.80;0.60;;;14.20;54.80;;;15.65;100.00;-21106.97;5073809;28;20462;-73
2021/04/29 09:46:23;;;;;;;0.87;0.87;;;14.10;55.60;;;15.74;100.00;-21109.31;5072216;28;20431;-72
2021/04/29 09:48:51;;;;;;;0.70;0.60;;;14.20;55.20;;;15.56;100.00;-21104.38;5073341;28;20517;-73
2021/04/29 09:51:19;;;;;;;1.20;0.90;;;14.30;54.50;;;16.90;100.00;-21140.63;5073546;28;20453;-73
2021/04/29 09:53:50;;;;;;;1.00;0.90;;;15.00;52.90;;;18.63;100.00;-21186.97;5072560;28;20404;-73
2021/04/29 09:56:20;;;;;;;1.27;1.10;;;15.80;49.90;;;18.41;100.00;-21180.94;5093263;28;20895;-74
2021/04/29 09:58:55;;;;;;;1.97;0.93;;;17.10;48.40;;;19.57;100.00;-21212.13;5080170;28;20935;-74
2021/04/29 10:01:25;;;;;;;0.80;0.80;;;17.00;47.10;;;19.81;100.00;-21218.41;5075313;28;20418;-73
2021/04/29 10:03:54;;;;;;;1.27;1.17;;;16.30;48.00;;;19.41;100.00;-21207.75;5073589;28;20452;-73
2021/04/29 10:06:22;;;;;;;1.77;1.47;;;17.40;49.20;;;19.37;100.00;-21206.81;5073445;28;20469;-73
2021/04/29 10:08:50;;;;;;;1.37;1.27;;;15.90;47.60;;;18.21;100.00;-21175.72;5085386;28;20401;-74
2021/04/29 10:11:22;;;;;;;1.10;1.00;;;15.30;52.50;;;17.38;100.00;-21153.38;5092448;28;21002;-73